Time;durP1;ratioP1;P1;durP2;ratioP2;P2;SDS_P1;SDS_P2;PMS_P1;PMS_P2;Temp;Humidity;BMP_temperature;BMP_pressure;BME280_temperature;BME280_humidity;BME280_pressure;Samples;Min_cycle;Max_cycle;Signal;HPM_P1;HPM_P2
2023/07/20 00:00:45;;;;;;;2.83;2.30;;;17.10;99.90;;;;;;5029222;28;20079;-63
2023/07/20 00:03:19;;;;;;;3.58;2.60;;;17.10;99.90;;;;;;5030585;28;20430;-63
2023/07/20 00:05:45;;;;;;;2.70;2.40;;;17.00;99.90;;;;;;5031469;28;20056;-63
2023/07/20 00:08:11;;;;;;;3.30;2.70;;;17.10;99.90;;;;;;5031119;28;20045;-63
2023/07/20 00:10:37;;;;;;;3.03;2.65;;;17.10;99.90;;;;;;5028963;28;20376;-63
2023/07/20 00:13:03;;;;;;;3.35;2.72;;;17.00;99.90;;;;;;5031806;28;20052;-62
2023/07/20 00:15:28;;;;;;;3.35;2.58;;;17.10;99.90;;;;;;5031119;28;20037;-63
2023/07/20 00:17:54;;;;;;;3.40;2.63;;;17.00;99.90;;;;;;5031006;28;20042;-63
2023/07/20 00:20:19;;;;;;;2.75;2.00;;;17.00;99.90;;;;;;5031277;28;20415;-63
2023/07/20 00:22:45;;;;;;;2.22;2.00;;;17.00;99.90;;;;;;5028928;28;20033;-63
2023/07/20 00:25:11;;;;;;;2.22;2.03;;;17.00;99.90;;;;;;5022436;28;20071;-63
2023/07/20 00:27:37;;;;;;;2.35;1.92;;;17.00;99.90;;;;;;5024622;28;20127;-62
2023/07/20 00:30:04;;;;;;;2.10;1.92;;;16.90;99.90;;;;;;5029875;28;20034;-63
2023/07/20 00:32:30;;;;;;;2.33;2.10;;;16.90;99.90;;;;;;5029363;28;20042;-63
2023/07/20 00:34:55;;;;;;;2.28;1.80;;;17.00;99.90;;;;;;5031034;28;20091;-63
2023/07/20 00:37:21;;;;;;;2.40;1.70;;;16.90;99.90;;;;;;5031440;28;20041;-63
2023/07/20 00:39:46;;;;;;;2.42;1.45;;;16.90;99.90;;;;;;5030476;28;20042;-62
2023/07/20 00:42:12;;;;;;;2.47;1.85;;;16.90;99.90;;;;;;5031667;28;20042;-63
2023/07/20 00:44:38;;;;;;;1.83;1.50;;;16.90;99.90;;;;;;5030391;28;20037;-63
2023/07/20 00:47:05;;;;;;;1.85;1.67;;;16.90;99.90;;;;;;5030287;28;20083;-63
2023/07/20 00:49:31;;;;;;;2.13;1.70;;;16.90;99.90;;;;;;5029455;28;20045;-63
2023/07/20 00:51:57;;;;;;;3.83;1.75;;;16.80;99.90;;;;;;5027416;28;20044;-62
2023/07/20 00:54:23;;;;;;;2.17;1.77;;;16.80;99.90;;;;;;5031424;28;20048;-62
2023/07/20 00:56:50;;;;;;;1.85;1.70;;;16.70;99.90;;;;;;5031352;28;20041;-62
2023/07/20 00:59:16;;;;;;;2.65;1.83;;;16.70;99.90;;;;;;5030780;28;20041;-62
2023/07/20 01:01:41;;;;;;;2.83;2.40;;;16.70;99.90;;;;;;5028481;28;20053;-62
2023/07/20 01:04:07;;;;;;;2.20;2.00;;;16.60;99.90;;;;;;5027714;28;20030;-62
2023/07/20 01:06:39;;;;;;;2.15;1.88;;;16.60;99.90;;;;;;5024560;28;20048;-62
2023/07/20 01:09:19;;;;;;;3.53;2.20;;;16.60;99.90;;;;;;5030401;28;20038;-62
2023/07/20 01:12:09;;;;;;;6.75;2.50;;;16.50;99.90;;;;;;5031555;28;20037;-62
2023/07/20 01:14:35;;;;;;;2.77;2.30;;;16.50;99.90;;;;;;5030729;28;20049;-62
2023/07/20 01:17:01;;;;;;;2.58;2.25;;;16.40;99.90;;;;;;5028115;28;20037;-62
2023/07/20 01:19:27;;;;;;;2.70;2.25;;;16.40;99.90;;;;;;5030546;28;20045;-62
2023/07/20 01:22:05;;;;;;;2.55;2.35;;;16.40;99.90;;;;;;5029695;28;20561;-62
2023/07/20 01:24:49;;;;;;;3.85;2.38;;;16.40;99.90;;;;;;5029675;28;20483;-63
2023/07/20 01:27:34;;;;;;;4.18;2.33;;;16.30;99.90;;;;;;5029700;28;20033;-63
2023/07/20 01:30:15;;;;;;;5.00;2.85;;;16.30;99.90;;;;;;5027357;28;20121;-63
2023/07/20 01:32:44;;;;;;;2.83;2.25;;;16.30;99.90;;;;;;5027384;28;20037;-63
2023/07/20 01:35:14;;;;;;;2.63;2.42;;;16.30;99.90;;;;;;5030660;28;20053;-63
2023/07/20 01:37:42;;;;;;;2.60;2.40;;;16.30;99.90;;;;;;5024948;28;20128;-63
2023/07/20 01:40:09;;;;;;;2.50;2.30;;;16.30;99.90;;;;;;5028922;28;20092;-62
2023/07/20 01:42:35;;;;;;;4.78;2.30;;;16.30;99.90;;;;;;5029175;28;20045;-62
2023/07/20 01:45:01;;;;;;;3.88;2.60;;;16.30;99.90;;;;;;5027926;28;20037;-63
2023/07/20 01:47:26;;;;;;;4.43;2.60;;;16.30;99.90;;;;;;5024750;28;20376;-63
2023/07/20 01:49:52;;;;;;;3.88;2.53;;;16.30;99.90;;;;;;5028363;28;20034;-63
2023/07/20 01:52:17;;;;;;;2.78;2.58;;;16.30;99.90;;;;;;5026910;28;20064;-63
2023/07/20 01:54:43;;;;;;;3.38;2.60;;;16.30;99.90;;;;;;5025485;28;20576;-62
2023/07/20 01:57:08;;;;;;;3.97;2.53;;;16.30;99.90;;;;;;5028238;28;20070;-63
2023/07/20 01:59:34;;;;;;;3.10;2.70;;;16.20;99.90;;;;;;5028960;28;20037;-62
2023/07/20 02:02:00;;;;;;;3.40;3.10;;;16.10;99.90;;;;;;5020277;28;20045;-63
2023/07/20 02:04:25;;;;;;;3.38;2.88;;;16.10;99.90;;;;;;5024649;28;20041;-63
2023/07/20 02:06:51;;;;;;;3.80;2.83;;;16.10;99.90;;;;;;5026656;28;20109;-63
2023/07/20 02:09:17;;;;;;;3.95;2.97;;;16.00;99.90;;;;;;5025162;28;20667;-62
2023/07/20 02:11:42;;;;;;;3.35;2.72;;;16.00;99.90;;;;;;5027375;28;20111;-62
2023/07/20 02:14:08;;;;;;;3.38;2.80;;;15.90;99.90;;;;;;5030513;28;20045;-63
2023/07/20 02:16:33;;;;;;;3.65;2.78;;;15.90;99.90;;;;;;5031501;28;20041;-63
2023/07/20 02:18:59;;;;;;;3.70;3.25;;;15.80;99.90;;;;;;5028142;28;20127;-63
2023/07/20 02:21:25;;;;;;;3.50;3.10;;;15.80;99.90;;;;;;5024715;28;20140;-63
2023/07/20 02:23:50;;;;;;;4.25;3.50;;;15.70;99.90;;;;;;5031802;28;20506;-62
2023/07/20 02:26:16;;;;;;;4.65;3.78;;;15.70;99.90;;;;;;5030695;28;20041;-63
2023/07/20 02:28:41;;;;;;;3.63;3.30;;;15.60;99.90;;;;;;5027756;28;20045;-63
2023/07/20 02:31:07;;;;;;;4.22;3.47;;;15.60;99.90;;;;;;5030048;28;20136;-63
2023/07/20 02:33:33;;;;;;;5.05;3.63;;;15.60;99.90;;;;;;5029561;28;20038;-63
2023/07/20 02:35:58;;;;;;;3.92;3.53;;;15.50;99.90;;;;;;5029727;28;20418;-63
2023/07/20 02:38:24;;;;;;;3.80;3.47;;;15.50;99.90;;;;;;5029302;28;20037;-63
2023/07/20 02:40:50;;;;;;;6.32;3.58;;;15.50;99.90;;;;;;5029758;28;20586;-63
2023/07/20 02:43:16;;;;;;;4.00;3.63;;;15.50;99.90;;;;;;5029928;28;20041;-63
2023/07/20 02:45:42;;;;;;;4.93;3.70;;;15.50;99.90;;;;;;5030681;28;20442;-63
2023/07/20 02:48:08;;;;;;;4.00;3.60;;;15.50;99.90;;;;;;5028917;28;20041;-62
2023/07/20 02:50:35;;;;;;;4.65;4.00;;;15.40;99.90;;;;;;5029341;28;20099;-62
2023/07/20 02:53:01;;;;;;;4.82;4.28;;;15.50;99.90;;;;;;5032607;28;20041;-62
2023/07/20 02:55:26;;;;;;;4.88;4.18;;;15.40;99.90;;;;;;5031724;28;20048;-62
2023/07/20 02:57:52;;;;;;;4.95;4.45;;;15.40;99.90;;;;;;5034175;28;20045;-63
2023/07/20 03:00:19;;;;;;;4.95;4.20;;;15.30;99.90;;;;;;5032894;28;20390;-63
2023/07/20 03:02:49;;;;;;;4.90;4.45;;;15.30;99.90;;;;;;5027022;28;20483;-62
2023/07/20 03:05:16;;;;;;;4.50;3.67;;;15.20;99.90;;;;;;5031039;28;20036;-63
2023/07/20 03:07:43;;;;;;;5.40;4.20;;;15.10;99.90;;;;;;5027912;28;20064;-62
2023/07/20 03:10:09;;;;;;;6.13;4.10;;;15.10;99.90;;;;;;5033571;28;20045;-63
2023/07/20 03:12:35;;;;;;;4.35;3.80;;;15.10;99.90;;;;;;5021160;28;20048;-62
2023/07/20 03:15:03;;;;;;;4.20;3.80;;;15.10;99.90;;;;;;5028596;28;20514;-63
2023/07/20 03:17:29;;;;;;;3.78;3.38;;;15.00;99.90;;;;;;5033056;28;20041;-62
2023/07/20 03:19:55;;;;;;;4.20;3.80;;;15.00;99.90;;;;;;5028135;28;20037;-62
2023/07/20 03:22:21;;;;;;;3.88;3.47;;;15.00;99.90;;;;;;5029871;28;20049;-63
2023/07/20 03:24:47;;;;;;;4.03;3.65;;;15.00;99.90;;;;;;5031226;28;20426;-62
2023/07/20 03:27:13;;;;;;;4.30;3.85;;;14.90;99.90;;;;;;5032759;28;20025;-62
2023/07/20 03:29:39;;;;;;;4.55;3.80;;;14.80;99.90;;;;;;5030821;28;20415;-62
2023/07/20 03:32:05;;;;;;;3.58;3.28;;;14.80;99.90;;;;;;5030197;28;20069;-62
2023/07/20 03:34:31;;;;;;;5.65;4.20;;;14.80;99.90;;;;;;5029156;28;20038;-62
2023/07/20 03:36:57;;;;;;;3.83;3.53;;;14.80;99.90;;;;;;5028889;28;20060;-62
2023/07/20 03:39:23;;;;;;;4.00;3.60;;;14.60;99.90;;;;;;5033049;28;20073;-62
2023/07/20 03:41:48;;;;;;;5.13;3.90;;;14.70;99.90;;;;;;5032270;28;20029;-62
2023/07/20 03:44:14;;;;;;;4.20;3.50;;;14.60;99.90;;;;;;5026567;28;20033;-62
2023/07/20 03:46:39;;;;;;;3.92;3.50;;;14.60;99.90;;;;;;5027932;28;20044;-62
2023/07/20 03:49:06;;;;;;;3.83;3.53;;;14.60;99.90;;;;;;5032417;28;20041;-63
2023/07/20 03:51:32;;;;;;;5.38;3.50;;;14.50;99.90;;;;;;5031243;28;20078;-60
2023/07/20 03:53:58;;;;;;;3.88;3.47;;;14.50;99.90;;;;;;5030680;28;20045;-60
2023/07/20 03:56:24;;;;;;;4.35;3.58;;;14.50;99.90;;;;;;5032577;28;20037;-60
2023/07/20 03:58:49;;;;;;;4.40;3.88;;;14.50;99.90;;;;;;5024868;28;20065;-61
2023/07/20 04:01:16;;;;;;;3.47;3.17;;;14.50;99.90;;;;;;5030675;28;20075;-60
2023/07/20 04:03:43;;;;;;;3.78;3.47;;;14.50;99.90;;;;;;5032734;28;20045;-60
2023/07/20 04:06:08;;;;;;;4.53;3.60;;;14.50;99.90;;;;;;5030082;28;20041;-60
2023/07/20 04:08:35;;;;;;;5.72;4.18;;;14.40;99.90;;;;;;5031950;28;20042;-61
2023/07/20 04:11:04;;;;;;;3.95;3.40;;;14.50;99.90;;;;;;5029919;28;20454;-61
2023/07/20 04:13:33;;;;;;;4.78;3.80;;;14.50;99.90;;;;;;5016091;28;20042;-61
2023/07/20 04:15:58;;;;;;;5.15;3.95;;;14.50;99.90;;;;;;5030320;28;20041;-61
2023/07/20 04:18:24;;;;;;;4.80;4.30;;;14.50;99.90;;;;;;5031777;28;20057;-61
2023/07/20 04:20:50;;;;;;;6.05;3.80;;;14.50;99.90;;;;;;5031046;28;20037;-61
2023/07/20 04:23:16;;;;;;;4.25;3.85;;;14.50;99.90;;;;;;5032321;28;20395;-61
2023/07/20 04:25:42;;;;;;;3.95;3.55;;;14.50;99.90;;;;;;5027092;28;20045;-62
2023/07/20 04:28:08;;;;;;;5.35;4.00;;;14.50;99.90;;;;;;5024125;28;20027;-62
2023/07/20 04:30:35;;;;;;;5.53;4.15;;;14.50;99.90;;;;;;5031541;28;20710;-62
2023/07/20 04:33:01;;;;;;;4.30;3.90;;;14.50;99.90;;;;;;5030583;28;20034;-62
2023/07/20 04:35:48;;;;;;;4.82;3.97;;;14.40;99.90;;;;;;5030502;28;20037;-62
2023/07/20 04:38:17;;;;;;;5.07;4.40;;;14.40;99.90;;;;;;5021047;28;20044;-62
2023/07/20 04:40:48;;;;;;;6.25;3.97;;;14.40;99.90;;;;;;5028657;28;20049;-62
2023/07/20 04:43:15;;;;;;;4.85;4.13;;;14.40;99.90;;;;;;5028223;28;20038;-62
2023/07/20 04:45:40;;;;;;;6.78;4.07;;;14.40;99.90;;;;;;5030097;28;20079;-61
2023/07/20 04:48:14;;;;;;;5.30;4.00;;;14.40;99.90;;;;;;5031379;28;20033;-61
2023/07/20 04:50:44;;;;;;;4.18;3.78;;;14.40;99.90;;;;;;5031689;28;20415;-62
2023/07/20 04:53:10;;;;;;;4.80;4.30;;;14.50;99.90;;;;;;5027032;28;20091;-62
2023/07/20 04:55:37;;;;;;;3.80;3.38;;;14.50;99.90;;;;;;5031295;28;20049;-62
2023/07/20 04:58:03;;;;;;;4.93;3.63;;;14.50;99.90;;;;;;5031397;28;20034;-62
2023/07/20 05:00:30;;;;;;;4.72;3.38;;;14.60;99.90;;;;;;5028836;28;20080;-61
2023/07/20 05:02:55;;;;;;;6.32;3.72;;;14.60;99.90;;;;;;5029665;28;20044;-62
2023/07/20 05:05:21;;;;;;;4.03;3.55;;;14.70;99.90;;;;;;5030175;28;20029;-62
2023/07/20 05:07:47;;;;;;;4.88;3.72;;;14.70;99.90;;;;;;5030396;28;20468;-62
2023/07/20 05:12:49;;;;;;;5.47;3.83;;;14.90;99.90;;;;;;5048144;28;20072;-66
2023/07/20 05:15:15;;;;;;;4.63;3.90;;;15.00;99.90;;;;;;5048226;28;20478;-66
2023/07/20 05:17:40;;;;;;;5.00;3.45;;;15.00;99.90;;;;;;5051274;28;20033;-66
2023/07/20 05:20:06;;;;;;;4.85;3.50;;;15.10;99.90;;;;;;5051378;28;20080;-66
2023/07/20 05:22:33;;;;;;;4.55;3.30;;;15.30;99.90;;;;;;5035144;28;20045;-66
2023/07/20 05:24:59;;;;;;;5.35;3.13;;;15.40;99.90;;;;;;5029833;28;20440;-66
2023/07/20 05:27:24;;;;;;;4.03;3.40;;;15.50;99.90;;;;;;5022137;28;20047;-66
2023/07/20 05:29:50;;;;;;;3.90;3.17;;;15.50;99.90;;;;;;5043500;28;20062;-69
2023/07/20 05:32:16;;;;;;;5.40;3.08;;;15.70;99.90;;;;;;5045476;28;20415;-69
2023/07/20 05:34:41;;;;;;;5.30;2.70;;;15.70;99.90;;;;;;5038551;28;20116;-69
2023/07/20 05:37:07;;;;;;;7.00;3.00;;;15.80;99.90;;;;;;5034465;28;20092;-69
2023/07/20 05:39:33;;;;;;;5.00;2.92;;;15.80;99.90;;;;;;5046193;28;20033;-69
2023/07/20 05:41:59;;;;;;;3.55;3.03;;;16.00;99.90;;;;;;5025801;28;20411;-70
2023/07/20 05:44:24;;;;;;;4.18;2.70;;;16.00;99.90;;;;;;5029674;28;20045;-69
2023/07/20 05:46:50;;;;;;;3.72;3.03;;;16.00;99.90;;;;;;5032302;28;20037;-69
2023/07/20 05:49:15;;;;;;;3.85;3.13;;;16.00;99.90;;;;;;5045417;28;20108;-69
2023/07/20 05:51:41;;;;;;;3.25;2.80;;;16.00;99.90;;;;;;5054767;28;20037;-69
2023/07/20 05:54:07;;;;;;;4.47;2.60;;;16.10;99.90;;;;;;5046287;28;20041;-69
2023/07/20 05:56:32;;;;;;;4.28;2.85;;;16.20;99.90;;;;;;5041334;28;20106;-69
2023/07/20 05:58:58;;;;;;;4.90;2.40;;;16.20;99.90;;;;;;5041220;28;20167;-69
2023/07/20 06:01:27;;;;;;;3.72;2.70;;;16.20;99.90;;;;;;5034255;28;20526;-69
2023/07/20 06:03:53;;;;;;;2.65;2.45;;;16.20;99.90;;;;;;5033299;28;20040;-69
2023/07/20 06:06:19;;;;;;;3.45;2.47;;;16.30;99.90;;;;;;5032245;28;20171;-69
2023/07/20 06:08:45;;;;;;;4.97;2.78;;;16.30;99.90;;;;;;5034490;28;20418;-69
2023/07/20 06:11:11;;;;;;;4.00;2.60;;;16.40;99.90;;;;;;5034738;28;20041;-69
2023/07/20 06:13:36;;;;;;;3.42;2.20;;;16.40;99.90;;;;;;5033019;28;20041;-69
2023/07/20 06:16:03;;;;;;;3.97;2.13;;;16.60;99.90;;;;;;5034922;28;20478;-70
2023/07/20 06:18:30;;;;;;;3.00;2.10;;;16.60;99.90;;;;;;5039651;28;20130;-69
2023/07/20 06:20:55;;;;;;;4.82;1.95;;;16.70;99.90;;;;;;5054067;28;20068;-69
2023/07/20 06:23:21;;;;;;;4.15;1.60;;;16.80;99.90;;;;;;5027585;28;20518;-68
2023/07/20 06:25:47;;;;;;;3.63;2.22;;;16.80;99.90;;;;;;5039841;28;20040;-68
2023/07/20 06:28:13;;;;;;;2.70;1.63;;;17.00;99.90;;;;;;5032540;28;20037;-68
2023/07/20 06:30:39;;;;;;;1.65;1.38;;;17.20;99.90;;;;;;5049250;28;20044;-69
2023/07/20 06:33:05;;;;;;;3.08;1.58;;;17.20;99.90;;;;;;5027798;28;20037;-68
2023/07/20 06:35:31;;;;;;;3.60;1.30;;;17.30;99.90;;;;;;5041418;28;20383;-69
2023/07/20 06:37:57;;;;;;;2.70;1.48;;;17.30;99.90;;;;;;5042117;28;20449;-69
2023/07/20 06:40:23;;;;;;;1.67;1.33;;;17.40;99.90;;;;;;5032683;28;20061;-69
2023/07/20 06:42:48;;;;;;;2.08;1.58;;;17.50;99.90;;;;;;5031300;28;20068;-68
2023/07/20 06:45:14;;;;;;;4.05;1.48;;;17.60;99.90;;;;;;5032725;28;20033;-69
2023/07/20 06:47:40;;;;;;;2.58;1.20;;;17.70;99.90;;;;;;5036681;28;20484;-69
2023/07/20 06:50:07;;;;;;;2.97;1.27;;;17.80;99.90;;;;;;5033007;28;20064;-69
2023/07/20 06:52:33;;;;;;;3.17;1.17;;;18.00;99.90;;;;;;5031358;28;20044;-68
2023/07/20 06:54:58;;;;;;;3.65;1.10;;;18.10;99.90;;;;;;5026887;28;20116;-69
2023/07/20 06:57:25;;;;;;;1.33;1.10;;;18.20;99.90;;;;;;5031952;28;20124;-69
2023/07/20 06:59:50;;;;;;;1.52;0.90;;;18.30;99.90;;;;;;5041649;28;20041;-69
2023/07/20 07:02:16;;;;;;;2.08;0.95;;;18.40;99.90;;;;;;5053685;28;20041;-69
2023/07/20 07:04:42;;;;;;;3.03;0.88;;;18.50;99.90;;;;;;5053233;28;20033;-69
2023/07/20 07:07:09;;;;;;;2.42;1.10;;;18.50;99.90;;;;;;5045105;28;20094;-69
2023/07/20 07:09:34;;;;;;;1.83;0.85;;;18.40;99.90;;;;;;5048220;28;20033;-69
2023/07/20 07:12:00;;;;;;;1.73;1.10;;;18.20;99.90;;;;;;5044967;28;20045;-69
2023/07/20 07:14:26;;;;;;;1.85;1.05;;;18.20;99.90;;;;;;5039193;28;20037;-69
2023/07/20 07:16:51;;;;;;;1.73;0.98;;;18.10;99.90;;;;;;5041645;28;20492;-69
2023/07/20 07:19:17;;;;;;;2.90;1.10;;;18.00;99.90;;;;;;5033321;28;20044;-69
2023/07/20 07:21:43;;;;;;;1.85;0.90;;;18.00;99.90;;;;;;5032831;28;20040;-69
2023/07/20 07:24:09;;;;;;;2.55;0.90;;;17.90;99.90;;;;;;5035528;28;20037;-69
2023/07/20 07:26:39;;;;;;;2.97;1.00;;;17.90;99.90;;;;;;5034327;28;20041;-69
2023/07/20 07:29:04;;;;;;;1.77;1.02;;;17.90;99.90;;;;;;5038739;28;20080;-69
2023/07/20 07:31:30;;;;;;;2.03;1.10;;;17.80;99.90;;;;;;5038464;28;20037;-68
2023/07/20 07:33:56;;;;;;;2.75;1.00;;;17.80;99.90;;;;;;5040508;28;20042;-69
2023/07/20 07:36:24;;;;;;;3.55;1.00;;;17.80;99.90;;;;;;5040897;28;20029;-69
2023/07/20 07:38:49;;;;;;;2.72;0.90;;;17.80;99.90;;;;;;5032771;28;20045;-69
2023/07/20 07:41:16;;;;;;;2.53;1.10;;;17.70;99.90;;;;;;5032745;28;20043;-69
2023/07/20 07:43:41;;;;;;;2.70;1.08;;;17.70;99.90;;;;;;5032564;28;20033;-69
2023/07/20 07:46:07;;;;;;;2.25;1.10;;;17.90;99.90;;;;;;5039041;28;20026;-69
2023/07/20 07:48:33;;;;;;;1.15;0.77;;;18.30;99.90;;;;;;5040819;28;20115;-69
2023/07/20 07:50:58;;;;;;;2.10;0.90;;;18.60;99.90;;;;;;5033337;28;20048;-69
2023/07/20 07:53:25;;;;;;;2.72;0.80;;;18.80;99.90;;;;;;5032631;28;20042;-69
2023/07/20 07:55:51;;;;;;;2.75;0.80;;;18.80;99.90;;;;;;5040146;28;20068;-69
2023/07/20 07:58:17;;;;;;;1.92;0.68;;;18.90;99.90;;;;;;5044788;28;20052;-69
2023/07/20 08:00:44;;;;;;;1.83;0.77;;;19.20;99.90;;;;;;5044327;28;20041;-68
2023/07/20 08:03:10;;;;;;;2.50;0.80;;;19.50;99.90;;;;;;5043440;28;20108;-68
2023/07/20 08:05:36;;;;;;;1.95;0.90;;;19.70;99.90;;;;;;5038283;28;20724;-69
2023/07/20 08:08:05;;;;;;;2.35;0.80;;;20.00;99.90;;;;;;5032964;28;20116;-68
2023/07/20 08:10:30;;;;;;;1.98;0.80;;;20.00;99.90;;;;;;5031595;28;20503;-69
2023/07/20 08:12:56;;;;;;;1.60;0.75;;;19.70;99.90;;;;;;5031808;28;20111;-69
2023/07/20 08:15:22;;;;;;;1.17;0.90;;;19.50;99.90;;;;;;5031382;28;20530;-69
2023/07/20 08:17:48;;;;;;;1.77;1.00;;;19.60;99.90;;;;;;5040513;28;20060;-69
2023/07/20 08:20:16;;;;;;;1.08;0.80;;;19.60;99.90;;;;;;5050896;28;20037;-69
2023/07/20 08:22:42;;;;;;;1.83;0.90;;;19.70;99.90;;;;;;5052343;28;20125;-69
2023/07/20 08:25:08;;;;;;;1.38;0.63;;;20.00;99.90;;;;;;5043334;28;20112;-69
2023/07/20 08:27:34;;;;;;;2.13;0.82;;;20.30;99.90;;;;;;5035386;28;20044;-69
2023/07/20 08:30:00;;;;;;;3.03;0.70;;;20.60;99.90;;;;;;5028643;28;20187;-68
2023/07/20 08:32:26;;;;;;;1.35;0.68;;;20.70;99.90;;;;;;5019901;28;20121;-68
2023/07/20 08:34:52;;;;;;;2.33;0.75;;;20.70;99.90;;;;;;5028109;28;20095;-69
2023/07/20 08:37:18;;;;;;;2.53;0.70;;;20.70;99.90;;;;;;5040484;28;20073;-68
2023/07/20 08:39:44;;;;;;;3.17;0.90;;;20.70;99.90;;;;;;5032035;28;20051;-69
2023/07/20 08:42:11;;;;;;;2.80;0.80;;;20.60;99.90;;;;;;5034709;28;20035;-69
2023/07/20 08:44:42;;;;;;;2.33;0.80;;;20.30;99.90;;;;;;5041237;28;20073;-68
2023/07/20 08:47:10;;;;;;;1.73;1.00;;;20.00;99.90;;;;;;5038663;28;20056;-68
2023/07/20 08:49:37;;;;;;;2.53;0.63;;;19.80;99.90;;;;;;5026943;28;20087;-69
2023/07/20 08:52:04;;;;;;;1.38;0.60;;;19.70;99.90;;;;;;5019921;28;20053;-69
2023/07/20 08:54:33;;;;;;;1.13;0.80;;;19.60;99.90;;;;;;5031457;28;20305;-69
2023/07/20 08:57:01;;;;;;;1.40;0.90;;;19.80;99.90;;;;;;5031535;28;20063;-69
2023/07/20 08:59:28;;;;;;;1.35;0.80;;;20.10;99.90;;;;;;5036734;28;20038;-68
2023/07/20 09:01:56;;;;;;;2.47;0.98;;;20.50;99.90;;;;;;5033595;28;20589;-68
2023/07/20 09:04:22;;;;;;;2.17;0.80;;;20.70;99.90;;;;;;5039624;28;20104;-68
2023/07/20 09:06:49;;;;;;;1.83;0.60;;;21.00;99.90;;;;;;5032151;28;20448;-68
2023/07/20 09:09:15;;;;;;;1.48;0.70;;;21.10;99.90;;;;;;5023313;28;20033;-68
2023/07/20 09:11:41;;;;;;;1.65;0.80;;;20.90;99.90;;;;;;5039768;28;20063;-68
2023/07/20 09:14:09;;;;;;;5.93;0.90;;;20.70;99.90;;;;;;5036148;28;20045;-68
2023/07/20 09:16:55;;;;;;;3.35;1.00;;;20.60;99.90;;;;;;5034481;28;20402;-68
2023/07/20 09:19:22;;;;;;;2.90;0.70;;;20.30;99.90;;;;;;5023940;28;20030;-68
2023/07/20 09:21:49;;;;;;;1.17;0.75;;;20.10;99.90;;;;;;5030094;28;20041;-68
2023/07/20 09:24:17;;;;;;;2.00;0.85;;;20.10;99.90;;;;;;5033720;28;20399;-68
2023/07/20 09:26:50;;;;;;;1.30;0.60;;;20.10;99.90;;;;;;5034975;28;20045;-68
2023/07/20 09:29:20;;;;;;;2.67;0.90;;;20.10;99.90;;;;;;5037435;28;20029;-68
2023/07/20 09:32:02;;;;;;;1.25;0.90;;;19.90;99.90;;;;;;5047083;28;20049;-68
2023/07/20 09:34:31;;;;;;;3.20;1.00;;;20.10;99.90;;;;;;5028753;28;20042;-68
2023/07/20 09:36:58;;;;;;;2.42;0.68;;;20.30;99.90;;;;;;5040033;28;20045;-68
2023/07/20 09:39:23;;;;;;;2.60;0.85;;;20.60;99.90;;;;;;5042664;28;20108;-68
2023/07/20 09:41:51;;;;;;;2.42;0.98;;;20.90;99.90;;;;;;5041150;28;20118;-67
2023/07/20 09:44:17;;;;;;;1.20;0.60;;;21.20;99.90;;;;;;5045145;28;20510;-68
2023/07/20 09:46:45;;;;;;;1.75;0.90;;;21.40;99.90;;;;;;5054087;28;20091;-68
2023/07/20 09:49:11;;;;;;;0.75;0.60;;;21.60;99.90;;;;;;5050486;28;20025;-68
2023/07/20 09:51:37;;;;;;;3.55;0.73;;;21.90;99.90;;;;;;5040701;28;20029;-68
2023/07/20 09:54:04;;;;;;;2.17;0.90;;;22.10;99.40;;;;;;5036272;28;20518;-68
2023/07/20 09:56:30;;;;;;;1.52;0.80;;;22.30;98.80;;;;;;5055416;28;20043;-68
2023/07/20 09:58:57;;;;;;;5.78;1.05;;;22.50;97.70;;;;;;5054685;28;20079;-68
2023/07/20 10:01:24;;;;;;;1.67;0.70;;;22.50;96.90;;;;;;5052166;28;20033;-68
2023/07/20 10:03:58;;;;;;;1.13;0.60;;;22.20;96.50;;;;;;5031324;28;20033;-67
2023/07/20 10:06:24;;;;;;;1.65;0.88;;;21.90;95.80;;;;;;5042827;28;20464;-68
2023/07/20 10:08:53;;;;;;;2.15;0.63;;;21.60;95.60;;;;;;5034223;28;20033;-68
2023/07/20 10:11:21;;;;;;;0.98;0.60;;;21.40;95.10;;;;;;5041502;28;20084;-68
2023/07/20 10:13:53;;;;;;;1.40;0.70;;;21.20;95.30;;;;;;5038399;28;20073;-69
2023/07/20 10:16:46;;;;;;;2.15;0.80;;;21.10;95.80;;;;;;5039223;28;20069;-69
2023/07/20 10:19:34;;;;;;;2.50;0.82;;;21.00;96.40;;;;;;5045099;28;20128;-68
2023/07/20 10:22:06;;;;;;;1.88;0.70;;;20.90;97.00;;;;;;5048430;28;20038;-69
2023/07/20 10:24:32;;;;;;;3.28;0.90;;;20.90;97.10;;;;;;5037448;28;20124;-69
2023/07/20 10:26:58;;;;;;;2.78;0.80;;;20.90;97.30;;;;;;5043741;28;20554;-69
2023/07/20 10:29:25;;;;;;;1.38;0.70;;;20.80;97.00;;;;;;5045458;28;20124;-69
2023/07/20 10:31:51;;;;;;;1.48;0.88;;;20.80;97.20;;;;;;5037130;28;20091;-69
2023/07/20 10:34:17;;;;;;;1.60;0.80;;;20.70;96.80;;;;;;5032275;28;20037;-69
2023/07/20 10:36:46;;;;;;;2.60;0.82;;;20.80;97.20;;;;;;5047225;28;20522;-68
2023/07/20 10:39:32;;;;;;;2.05;0.90;;;20.80;97.00;;;;;;5054262;28;20033;-69
2023/07/20 10:42:03;;;;;;;3.50;1.00;;;20.60;97.60;;;;;;5034155;28;20091;-68
2023/07/20 10:44:30;;;;;;;1.95;0.90;;;20.60;98.50;;;;;;5048472;28;20104;-69
2023/07/20 10:47:03;;;;;;;1.58;0.90;;;20.50;99.10;;;;;;5034160;28;20037;-70
2023/07/20 10:49:29;;;;;;;4.68;0.85;;;20.50;99.50;;;;;;5032064;28;20033;-69
2023/07/20 10:51:59;;;;;;;1.63;0.98;;;20.50;99.80;;;;;;5033884;28;20172;-70
2023/07/20 10:54:31;;;;;;;1.95;1.00;;;20.50;99.90;;;;;;5039214;28;20049;-70
2023/07/20 10:56:58;;;;;;;2.70;0.90;;;20.60;99.90;;;;;;5032489;28;20049;-69
2023/07/20 10:59:23;;;;;;;1.10;0.80;;;20.50;99.90;;;;;;5032667;28;20045;-69
2023/07/20 11:01:50;;;;;;;2.70;1.10;;;20.60;99.90;;;;;;5033376;28;20091;-70
2023/07/20 11:04:18;;;;;;;1.77;0.73;;;20.70;99.90;;;;;;5033696;28;20029;-70
2023/07/20 11:06:45;;;;;;;2.42;0.88;;;20.80;99.90;;;;;;5028774;28;20045;-70
2023/07/20 11:09:14;;;;;;;1.58;0.70;;;20.70;99.90;;;;;;5032095;28;20041;-70
2023/07/20 11:11:46;;;;;;;1.02;0.80;;;20.70;99.90;;;;;;5063194;22;20075;-65
2023/07/20 11:14:23;;;;;;;0.88;0.60;;;20.60;99.90;;;;;;5034101;28;20040;-66
2023/07/20 11:16:51;;;;;;;0.60;0.50;;;20.60;99.90;;;;;;5034565;28;20159;-65
2023/07/20 11:19:25;;;;;;;1.27;0.80;;;20.50;99.90;;;;;;5031024;28;20128;-66
2023/07/20 11:21:52;;;;;;;2.22;0.70;;;20.60;99.90;;;;;;5043540;28;20116;-65
2023/07/20 11:24:18;;;;;;;1.42;0.98;;;20.50;99.90;;;;;;5033109;28;20044;-65
2023/07/20 11:26:51;;;;;;;2.00;0.80;;;20.40;99.90;;;;;;5036856;28;20037;-65
2023/07/20 11:29:18;;;;;;;1.70;0.70;;;20.40;99.90;;;;;;5029711;28;20042;-65
2023/07/20 11:31:46;;;;;;;2.30;0.85;;;20.30;99.90;;;;;;5037809;28;20080;-65
2023/07/20 11:34:20;;;;;;;0.80;0.55;;;20.30;99.90;;;;;;5030675;28;20045;-65
2023/07/20 11:36:47;;;;;;;2.33;0.85;;;20.40;99.90;;;;;;5029697;28;20042;-65
2023/07/20 11:39:15;;;;;;;2.45;0.80;;;20.40;99.90;;;;;;5029540;28;20037;-65
2023/07/20 11:41:49;;;;;;;1.85;0.75;;;20.50;99.90;;;;;;5037476;28;20048;-65
2023/07/20 11:44:16;;;;;;;0.93;0.80;;;20.60;99.90;;;;;;5024209;28;20052;-65
2023/07/20 11:46:44;;;;;;;2.38;0.90;;;20.70;99.90;;;;;;5030614;28;20034;-65
2023/07/20 11:49:10;;;;;;;2.78;0.90;;;20.80;99.90;;;;;;5033401;28;20116;-65
2023/07/20 11:51:37;;;;;;;2.83;0.82;;;20.90;99.90;;;;;;5032991;28;20038;-65
2023/07/20 11:54:04;;;;;;;1.88;1.10;;;20.90;99.90;;;;;;5036239;28;20068;-65
2023/07/20 11:56:30;;;;;;;3.03;0.95;;;21.00;99.90;;;;;;5031912;28;20034;-65
2023/07/20 11:58:59;;;;;;;1.85;1.00;;;21.20;99.90;;;;;;5036629;28;20037;-65
2023/07/20 12:01:28;;;;;;;2.55;1.23;;;21.40;99.90;;;;;;5031075;28;20088;-65
2023/07/20 12:03:56;;;;;;;1.98;0.70;;;21.60;99.90;;;;;;5028956;28;20254;-66
2023/07/20 12:06:26;;;;;;;1.92;1.05;;;21.80;99.90;;;;;;5032173;28;20034;-65
2023/07/20 12:08:56;;;;;;;1.55;1.20;;;22.00;99.90;;;;;;5033764;28;20041;-65
2023/07/20 12:11:36;;;;;;;1.33;1.00;;;22.20;99.90;;;;;;5027904;28;20041;-66
2023/07/20 12:14:02;;;;;;;3.08;1.30;;;22.30;99.90;;;;;;5040534;28;20037;-66
2023/07/20 12:16:29;;;;;;;3.47;1.00;;;22.30;99.70;;;;;;5033553;28;20086;-66
2023/07/20 12:19:02;;;;;;;2.83;0.90;;;22.40;99.20;;;;;;5032263;28;20041;-66
2023/07/20 12:21:28;;;;;;;2.83;0.90;;;22.20;98.50;;;;;;5030403;28;20052;-66
2023/07/20 12:23:56;;;;;;;2.58;0.95;;;22.10;98.30;;;;;;5029954;28;20391;-66
2023/07/20 12:26:23;;;;;;;2.58;0.90;;;22.00;98.60;;;;;;5030508;28;20035;-66
2023/07/20 12:28:49;;;;;;;2.83;0.90;;;21.80;98.20;;;;;;5031189;28;20045;-66
2023/07/20 12:31:15;;;;;;;0.98;0.88;;;21.70;98.00;;;;;;5030051;28;20392;-65
2023/07/20 12:33:41;;;;;;;2.08;0.93;;;21.60;98.30;;;;;;5032420;28;20041;-65
2023/07/20 12:36:08;;;;;;;1.92;0.90;;;21.50;98.20;;;;;;5030492;28;20495;-66
2023/07/20 12:38:34;;;;;;;1.80;0.77;;;21.50;97.80;;;;;;5031375;28;20511;-66
2023/07/20 12:41:03;;;;;;;1.13;0.90;;;21.40;97.60;;;;;;5031039;28;20048;-65
2023/07/20 12:43:29;;;;;;;2.85;0.80;;;21.50;98.10;;;;;;5030525;28;20376;-65
2023/07/20 12:45:56;;;;;;;1.50;0.90;;;21.50;98.70;;;;;;5030648;28;20052;-65
2023/07/20 12:48:22;;;;;;;1.25;0.90;;;21.50;98.80;;;;;;5031694;28;20044;-65
2023/07/20 12:50:48;;;;;;;1.45;1.10;;;21.70;98.80;;;;;;5030239;28;20114;-65